createdAt,value
2019-03-10T00:01:48.682Z,86.90
2019-03-10T00:04:16.912Z,87.30
2019-03-10T00:06:45.152Z,86.80
2019-03-10T00:09:13.410Z,86.90
2019-03-10T00:11:41.636Z,87.40
2019-03-10T00:14:09.913Z,87.50
2019-03-10T00:16:38.164Z,87.60
2019-03-10T00:19:06.398Z,87.30
2019-03-10T00:21:34.639Z,87.30
2019-03-10T00:24:02.909Z,87.40
2019-03-10T00:26:31.136Z,87.80
2019-03-10T00:28:59.678Z,88.10
2019-03-10T00:31:27.962Z,88.20
2019-03-10T00:33:56.228Z,88.70
2019-03-10T00:36:24.497Z,88.50
2019-03-10T00:38:58.844Z,88.80
2019-03-10T00:41:36.290Z,89.30
2019-03-10T00:44:42.776Z,89.70
2019-03-10T00:47:47.717Z,89.80
2019-03-10T00:50:31.236Z,90.00
2019-03-10T00:52:59.673Z,90.10
2019-03-10T00:55:27.939Z,90.20
2019-03-10T00:57:56.167Z,90.30
2019-03-10T01:00:24.409Z,90.20
2019-03-10T01:02:52.626Z,90.30
2019-03-10T01:05:20.910Z,90.10
2019-03-10T01:07:49.149Z,90.30
2019-03-10T01:10:17.396Z,89.50
2019-03-10T01:12:45.633Z,89.40
2019-03-10T01:15:14.436Z,89.20
2019-03-10T01:17:42.646Z,89.50
2019-03-10T01:20:11.929Z,89.80
2019-03-10T01:22:40.256Z,89.50
2019-03-10T01:25:10.702Z,89.00
2019-03-10T01:27:39.290Z,89.00
2019-03-10T01:30:19.031Z,88.90
2019-03-10T01:32:50.522Z,88.40
2019-03-10T01:35:21.715Z,88.60
2019-03-10T01:37:49.976Z,88.60
2019-03-10T01:40:18.300Z,88.80
2019-03-10T01:42:46.548Z,88.70
2019-03-10T01:45:14.798Z,88.80
2019-03-10T01:47:43.023Z,89.10
2019-03-10T01:50:13.118Z,89.20
2019-03-10T01:52:41.393Z,89.10
2019-03-10T01:55:11.174Z,89.30
2019-03-10T01:57:39.404Z,89.50
2019-03-10T02:00:11.206Z,89.80
2019-03-10T02:02:39.450Z,89.60
2019-03-10T02:05:07.766Z,89.40
2019-03-10T02:07:35.986Z,89.20
2019-03-10T02:10:07.046Z,89.50
2019-03-10T02:12:36.050Z,89.60
2019-03-10T02:15:07.054Z,89.80
2019-03-10T02:17:35.262Z,89.90
2019-03-10T02:20:05.650Z,90.00
2019-03-10T02:22:33.870Z,90.10
2019-03-10T02:25:02.265Z,90.30
2019-03-10T02:27:30.508Z,90.70
2019-03-10T02:29:58.744Z,90.90
2019-03-10T02:32:26.970Z,91.10
2019-03-10T02:34:55.204Z,91.20
2019-03-10T02:37:23.430Z,91.40
2019-03-10T02:39:51.692Z,91.50
2019-03-10T02:42:19.910Z,91.70
2019-03-10T02:44:48.163Z,91.80
2019-03-10T02:47:16.398Z,91.90
2019-03-10T02:49:44.626Z,92.10
2019-03-10T02:52:12.851Z,92.30
2019-03-10T02:54:41.083Z,92.40
2019-03-10T02:57:09.324Z,92.50
2019-03-10T02:59:37.580Z,92.50
2019-03-10T03:02:05.778Z,93.10
2019-03-10T03:04:34.044Z,93.00
2019-03-10T03:07:02.262Z,93.30
2019-03-10T03:09:30.527Z,93.50
2019-03-10T03:11:58.762Z,93.30
2019-03-10T03:14:27.003Z,93.50
2019-03-10T03:16:55.246Z,93.80
2019-03-10T03:19:23.511Z,94.00
2019-03-10T03:21:51.850Z,94.00
2019-03-10T03:24:20.110Z,94.40
2019-03-10T03:26:48.341Z,94.70
2019-03-10T03:29:16.596Z,95.00
2019-03-10T03:31:44.876Z,95.10
2019-03-10T03:34:13.106Z,94.90
2019-03-10T03:36:41.322Z,95.40
2019-03-10T03:39:18.291Z,95.30
2019-03-10T03:41:46.573Z,95.70
2019-03-10T03:44:14.834Z,96.40
2019-03-10T03:46:43.070Z,97.20
2019-03-10T03:49:12.004Z,97.70
2019-03-10T03:51:40.268Z,98.10
2019-03-10T03:54:08.547Z,97.90
2019-03-10T03:56:36.817Z,98.00
2019-03-10T03:59:05.075Z,98.10
2019-03-10T04:01:35.023Z,98.00
2019-03-10T04:04:03.244Z,97.90
2019-03-10T04:06:31.547Z,98.00
2019-03-10T04:08:59.800Z,97.90
2019-03-10T04:11:28.033Z,98.00
2019-03-10T04:13:56.264Z,98.20
2019-03-10T04:16:24.510Z,98.20
2019-03-10T04:18:52.718Z,98.00
2019-03-10T04:21:20.947Z,97.90
2019-03-10T04:23:49.177Z,98.10
2019-03-10T04:26:17.405Z,98.30
2019-03-10T04:28:45.681Z,98.60
2019-03-10T04:31:14.540Z,98.70
2019-03-10T04:33:42.753Z,98.80
2019-03-10T04:36:10.962Z,99.00
2019-03-10T04:38:39.212Z,99.10
2019-03-10T04:41:07.455Z,99.10
2019-03-10T04:43:35.682Z,99.20
2019-03-10T04:46:03.918Z,99.10
2019-03-10T04:48:32.152Z,99.20
2019-03-10T04:51:00.425Z,99.30
2019-03-10T04:53:28.632Z,99.40
2019-03-10T04:55:58.502Z,99.40
2019-03-10T04:58:26.712Z,99.40
2019-03-10T05:00:56.628Z,99.40
2019-03-10T05:03:24.838Z,99.50
2019-03-10T05:05:53.088Z,99.60
2019-03-10T05:08:21.343Z,99.60
2019-03-10T05:10:49.554Z,99.60
2019-03-10T05:13:17.799Z,99.60
2019-03-10T05:15:46.959Z,99.60
2019-03-10T05:18:15.200Z,99.60
2019-03-10T05:20:43.473Z,99.70
2019-03-10T05:23:29.875Z,99.60
2019-03-10T05:25:58.254Z,99.70
2019-03-10T05:28:26.954Z,99.80
2019-03-10T05:30:55.180Z,99.90
2019-03-10T05:33:23.405Z,99.90
2019-03-10T05:35:51.630Z,99.90
2019-03-10T05:38:19.855Z,99.90
2019-03-10T05:40:48.691Z,99.90
2019-03-10T05:43:16.940Z,99.90
2019-03-10T05:45:45.145Z,99.90
2019-03-10T05:48:13.383Z,99.90
2019-03-10T05:50:41.629Z,99.90
2019-03-10T05:53:09.866Z,99.90
2019-03-10T05:55:38.092Z,99.90
2019-03-10T05:58:06.327Z,99.90
2019-03-10T06:00:42.115Z,99.90
2019-03-10T06:03:04.516Z,99.90
2019-03-10T06:05:32.763Z,99.90
2019-03-10T06:08:00.997Z,99.90
2019-03-10T06:10:29.238Z,99.90
2019-03-10T06:12:57.479Z,99.90
2019-03-10T06:15:25.721Z,99.90
2019-03-10T06:17:54.003Z,99.90
2019-03-10T06:20:22.247Z,99.90
2019-03-10T06:22:51.215Z,99.90
2019-03-10T06:25:19.450Z,99.90
2019-03-10T06:27:47.666Z,99.90
2019-03-10T06:30:15.903Z,99.90
2019-03-10T06:32:44.138Z,99.90
2019-03-10T06:35:12.363Z,99.90
2019-03-10T06:37:40.623Z,99.90
2019-03-10T06:40:08.850Z,99.90
2019-03-10T06:42:37.090Z,99.90
2019-03-10T06:45:06.613Z,99.90
2019-03-10T06:47:34.847Z,99.90
2019-03-10T06:50:03.906Z,99.90
2019-03-10T06:52:32.135Z,99.90
2019-03-10T06:55:00.449Z,99.90
2019-03-10T06:57:28.675Z,99.90
2019-03-10T06:59:56.920Z,99.90
2019-03-10T07:02:25.210Z,99.90
2019-03-10T07:04:53.779Z,99.90
2019-03-10T07:07:22.057Z,99.90
2019-03-10T07:09:50.286Z,99.90
2019-03-10T07:12:18.544Z,99.90
2019-03-10T07:14:46.843Z,99.90
2019-03-10T07:17:15.103Z,99.90
2019-03-10T07:19:43.353Z,99.90
2019-03-10T07:22:11.598Z,99.90
2019-03-10T07:24:39.838Z,99.90
2019-03-10T07:27:08.096Z,99.90
2019-03-10T07:29:40.977Z,99.90
2019-03-10T07:32:10.902Z,99.90
2019-03-10T07:34:57.329Z,99.90
2019-03-10T07:37:39.679Z,99.90
2019-03-10T07:40:15.252Z,99.90
2019-03-10T07:42:53.933Z,99.90
2019-03-10T07:45:26.719Z,99.90
2019-03-10T07:47:59.574Z,99.90
2019-03-10T07:50:38.692Z,99.90
2019-03-10T07:53:17.283Z,99.90
2019-03-10T07:55:53.154Z,99.90
2019-03-10T07:58:23.014Z,99.90
2019-03-10T08:00:52.898Z,99.90
2019-03-10T08:03:26.911Z,99.90
2019-03-10T08:06:15.310Z,99.90
2019-03-10T08:08:45.186Z,99.90
2019-03-10T08:11:20.711Z,99.90
2019-03-10T08:14:06.673Z,99.90
2019-03-10T08:16:36.567Z,99.90
2019-03-10T08:19:22.448Z,99.90
2019-03-10T08:21:55.103Z,99.90
2019-03-10T08:24:33.475Z,99.90
2019-03-10T08:27:03.370Z,99.90
2019-03-10T08:29:44.791Z,99.90
2019-03-10T08:32:14.690Z,99.90
2019-03-10T08:34:44.550Z,99.90
2019-03-10T08:37:17.343Z,99.90
2019-03-10T08:39:56.252Z,99.90
2019-03-10T08:42:26.131Z,99.90
2019-03-10T08:44:59.568Z,99.90
2019-03-10T08:47:31.892Z,99.90
2019-03-10T08:50:02.342Z,99.90
2019-03-10T08:52:32.367Z,99.90
2019-03-10T08:55:05.383Z,99.90
2019-03-10T08:57:35.239Z,99.90
2019-03-10T09:00:23.321Z,99.90
2019-03-10T09:02:56.074Z,99.90
2019-03-10T09:05:41.252Z,99.90
2019-03-10T09:08:16.854Z,99.90
2019-03-10T09:10:49.385Z,99.90
2019-03-10T09:13:19.271Z,99.90
2019-03-10T09:15:55.125Z,99.90
2019-03-10T09:18:34.126Z,99.90
2019-03-10T09:21:04.113Z,99.90
2019-03-10T09:23:34.336Z,99.90
2019-03-10T09:26:07.395Z,99.90
2019-03-10T09:28:55.114Z,99.90
2019-03-10T09:31:27.498Z,99.90
2019-03-10T09:34:00.082Z,99.90
2019-03-10T09:36:29.953Z,99.90
2019-03-10T09:39:15.729Z,99.70
2019-03-10T09:41:51.260Z,98.70
2019-03-10T09:44:37.341Z,98.20
2019-03-10T09:47:09.785Z,98.70
2019-03-10T09:49:48.445Z,99.20
2019-03-10T09:52:33.363Z,99.00
2019-03-10T09:55:12.256Z,99.40
2019-03-10T09:57:58.370Z,99.10
2019-03-10T10:00:36.997Z,98.30
2019-03-10T10:03:09.665Z,98.20
2019-03-10T10:05:42.430Z,98.10
2019-03-10T10:08:14.845Z,98.40
2019-03-10T10:10:50.579Z,98.70
2019-03-10T10:13:29.287Z,97.80
2019-03-10T10:16:04.636Z,98.10
2019-03-10T10:18:34.505Z,98.60
2019-03-10T10:21:20.759Z,99.20
2019-03-10T10:23:53.187Z,99.90
2019-03-10T10:26:41.124Z,95.90
2019-03-10T10:29:27.142Z,96.40
2019-03-10T10:31:57.034Z,96.60
2019-03-10T10:34:26.926Z,95.00
2019-03-10T10:36:56.794Z,93.30
2019-03-10T10:39:43.143Z,91.60
2019-03-10T10:42:29.384Z,91.80
2019-03-10T10:45:02.364Z,91.00
2019-03-10T10:47:32.245Z,91.30
2019-03-10T10:50:02.190Z,92.30
2019-03-10T10:52:41.434Z,91.60
2019-03-10T10:55:23.178Z,85.70
2019-03-10T10:57:58.848Z,88.10
2019-03-10T11:00:28.748Z,85.50
2019-03-10T11:03:04.452Z,84.20
2019-03-10T11:05:39.917Z,84.10
2019-03-10T11:08:13.281Z,86.90
2019-03-10T11:10:43.151Z,90.20
2019-03-10T11:13:18.814Z,88.10
2019-03-10T11:16:00.941Z,88.70
2019-03-10T11:18:40.036Z,89.20
2019-03-10T11:21:28.116Z,90.30
2019-03-10T11:23:58.024Z,92.00
2019-03-10T11:26:28.205Z,92.30
2019-03-10T11:29:07.502Z,91.20
2019-03-10T11:31:37.390Z,90.70
2019-03-10T11:34:09.704Z,90.00
2019-03-10T11:36:54.900Z,89.10
2019-03-10T11:39:30.864Z,85.30
2019-03-10T11:42:03.682Z,82.60
2019-03-10T11:44:45.779Z,78.90
2019-03-10T11:47:15.680Z,78.90
2019-03-10T11:49:51.681Z,75.80
2019-03-10T11:52:30.730Z,74.70
2019-03-10T11:55:00.646Z,75.40
2019-03-10T11:57:39.614Z,75.20
2019-03-10T12:00:21.288Z,73.30
2019-03-10T12:03:09.573Z,72.30
2019-03-10T12:05:57.380Z,69.10
2019-03-10T12:08:44.992Z,70.40
2019-03-10T12:11:13.227Z,71.10
2019-03-10T12:13:41.482Z,72.10
2019-03-10T12:16:09.926Z,72.10
2019-03-10T12:18:38.267Z,72.00
2019-03-10T12:21:06.520Z,72.20
2019-03-10T12:23:35.140Z,73.20
2019-03-10T12:26:03.494Z,75.50
2019-03-10T12:28:32.147Z,75.80
2019-03-10T12:31:00.394Z,73.80
2019-03-10T12:33:28.663Z,74.00
2019-03-10T12:35:56.908Z,79.10
2019-03-10T12:38:25.163Z,83.90
2019-03-10T12:40:53.424Z,87.40
2019-03-10T12:43:21.692Z,90.30
2019-03-10T12:45:49.965Z,91.30
2019-03-10T12:48:18.291Z,92.50
2019-03-10T12:50:46.583Z,93.60
2019-03-10T12:53:15.080Z,94.30
2019-03-10T12:55:43.331Z,94.40
2019-03-10T12:58:11.554Z,95.50
2019-03-10T13:00:39.828Z,95.60
2019-03-10T13:03:08.076Z,95.30
2019-03-10T13:05:36.306Z,96.00
2019-03-10T13:08:04.567Z,95.40
2019-03-10T13:10:32.825Z,94.00
2019-03-10T13:13:01.066Z,93.00
2019-03-10T13:15:29.326Z,92.10
2019-03-10T13:17:57.564Z,91.60
2019-03-10T13:20:28.670Z,90.00
2019-03-10T13:22:55.778Z,89.60
2019-03-10T13:25:24.016Z,87.50
2019-03-10T13:27:52.268Z,87.20
2019-03-10T13:30:20.569Z,86.70
2019-03-10T13:32:48.830Z,81.00
2019-03-10T13:35:17.911Z,79.20
2019-03-10T13:37:46.178Z,75.80
2019-03-10T13:40:14.943Z,72.80
2019-03-10T13:42:43.175Z,71.50
2019-03-10T13:45:13.090Z,72.30
2019-03-10T13:47:41.338Z,73.20
2019-03-10T13:50:12.808Z,74.90
2019-03-10T13:52:41.089Z,74.10
2019-03-10T13:55:09.774Z,72.20
2019-03-10T13:57:38.000Z,69.80
2019-03-10T14:00:25.627Z,69.40
2019-03-10T14:02:53.931Z,70.50
2019-03-10T14:05:22.300Z,70.60
2019-03-10T14:07:50.553Z,69.80
2019-03-10T14:10:18.779Z,68.10
2019-03-10T14:12:47.000Z,68.50
2019-03-10T14:15:16.966Z,67.60
2019-03-10T14:17:45.224Z,67.50
2019-03-10T14:20:14.655Z,67.90
2019-03-10T14:22:43.177Z,68.50
2019-03-10T14:25:13.538Z,68.70
2019-03-10T14:27:41.772Z,69.20
2019-03-10T14:30:12.473Z,70.20
2019-03-10T14:32:40.709Z,71.30
2019-03-10T14:37:32.021Z,72.10
2019-03-10T14:40:00.358Z,74.10
2019-03-10T14:42:28.636Z,73.30
2019-03-10T14:44:56.860Z,71.70
2019-03-10T14:47:25.082Z,70.30
2019-03-10T14:49:53.309Z,69.90
2019-03-10T14:52:27.547Z,69.60
2019-03-10T14:54:55.772Z,70.30
2019-03-10T14:57:24.017Z,70.20
2019-03-10T14:59:53.221Z,69.10
2019-03-10T15:02:21.494Z,69.30
2019-03-10T15:04:49.739Z,69.40
2019-03-10T15:07:17.960Z,70.50
2019-03-10T15:09:46.212Z,70.70
2019-03-10T15:12:14.419Z,70.60
2019-03-10T15:14:42.660Z,70.60
2019-03-10T15:17:10.912Z,70.70
2019-03-10T15:19:39.141Z,70.10
2019-03-10T15:22:07.404Z,71.00
2019-03-10T15:24:35.624Z,71.00
2019-03-10T15:27:04.085Z,70.40
2019-03-10T15:29:32.879Z,70.30
2019-03-10T15:32:01.149Z,71.10
2019-03-10T15:34:29.395Z,70.30
2019-03-10T15:36:57.630Z,71.40
2019-03-10T15:39:27.291Z,70.90
2019-03-10T15:41:55.841Z,71.40
2019-03-10T15:44:24.110Z,71.70
2019-03-10T15:46:52.377Z,72.30
2019-03-10T15:49:20.610Z,73.00
2019-03-10T15:51:48.878Z,73.40
2019-03-10T15:54:17.098Z,74.20
2019-03-10T15:56:45.341Z,74.60
2019-03-10T15:59:13.568Z,75.20
2019-03-10T16:01:41.798Z,76.30
2019-03-10T16:04:15.248Z,77.20
2019-03-10T16:06:43.477Z,78.60
2019-03-10T16:09:11.715Z,79.20
2019-03-10T16:11:39.973Z,79.70
2019-03-10T16:14:08.175Z,80.00
2019-03-10T16:16:36.419Z,81.50
2019-03-10T16:19:04.645Z,82.90
2019-03-10T16:21:32.885Z,83.40
2019-03-10T16:24:01.104Z,83.80
2019-03-10T16:26:29.353Z,84.40
2019-03-10T16:28:57.588Z,84.20
2019-03-10T16:31:25.834Z,84.70
2019-03-10T16:33:54.060Z,84.20
2019-03-10T16:36:22.311Z,85.10
2019-03-10T16:39:50.954Z,84.90
2019-03-10T16:42:19.176Z,85.90
2019-03-10T16:44:47.416Z,87.60
2019-03-10T16:47:15.664Z,89.30
2019-03-10T16:49:43.900Z,90.10
2019-03-10T16:52:12.265Z,90.90
2019-03-10T16:54:40.549Z,91.10
2019-03-10T16:57:08.795Z,91.20
2019-03-10T16:59:37.021Z,91.40
2019-03-10T17:02:05.271Z,91.30
2019-03-10T17:04:33.546Z,91.40
2019-03-10T17:07:01.803Z,91.00
2019-03-10T17:09:30.021Z,90.30
2019-03-10T17:11:58.273Z,90.90
2019-03-10T17:14:26.504Z,91.10
2019-03-10T17:16:54.747Z,91.50
2019-03-10T17:19:22.977Z,92.00
2019-03-10T17:21:51.237Z,91.80
2019-03-10T17:24:19.482Z,92.20
2019-03-10T17:26:47.756Z,92.50
2019-03-10T17:29:15.975Z,92.40
2019-03-10T17:31:44.212Z,92.90
2019-03-10T17:34:12.628Z,93.40
2019-03-10T17:36:40.867Z,93.70
2019-03-10T17:39:09.085Z,94.00
2019-03-10T17:41:37.355Z,93.00
2019-03-10T17:44:05.609Z,93.00
2019-03-10T17:46:33.851Z,93.50
2019-03-10T17:49:02.276Z,93.60
2019-03-10T17:51:30.507Z,93.70
2019-03-10T17:53:58.754Z,93.90
2019-03-10T17:56:26.961Z,93.10
2019-03-10T17:58:55.330Z,92.70
2019-03-10T18:01:23.590Z,92.40
2019-03-10T18:03:52.849Z,91.40
2019-03-10T18:06:21.074Z,91.10
2019-03-10T18:08:49.326Z,88.30
2019-03-10T18:11:17.631Z,89.30
2019-03-10T18:13:45.851Z,89.20
2019-03-10T18:16:14.078Z,87.40
2019-03-10T18:18:42.320Z,88.00
2019-03-10T18:21:10.549Z,86.70
2019-03-10T18:23:38.757Z,86.30
2019-03-10T18:26:06.970Z,84.90
2019-03-10T18:28:35.207Z,82.80
2019-03-10T18:31:03.432Z,80.50
2019-03-10T18:33:31.667Z,81.00
2019-03-10T18:35:59.891Z,80.00
2019-03-10T18:38:28.142Z,79.30
2019-03-10T18:40:56.416Z,78.40
2019-03-10T18:43:25.234Z,78.70
2019-03-10T18:45:53.582Z,79.20
2019-03-10T18:48:21.805Z,79.00
2019-03-10T18:50:50.082Z,79.70
2019-03-10T18:53:18.379Z,79.20
2019-03-10T18:55:46.619Z,80.10
2019-03-10T18:58:15.096Z,80.00
2019-03-10T19:00:43.325Z,80.60
2019-03-10T19:03:11.558Z,80.90
2019-03-10T19:05:39.820Z,81.70
2019-03-10T19:08:08.079Z,81.90
2019-03-10T19:10:36.384Z,82.50
2019-03-10T19:13:04.639Z,82.60
2019-03-10T19:15:32.851Z,83.00
2019-03-10T19:18:01.119Z,83.10
2019-03-10T19:20:29.345Z,83.50
2019-03-10T19:22:57.596Z,83.30
2019-03-10T19:25:25.815Z,83.10
2019-03-10T19:27:54.052Z,83.00
2019-03-10T19:30:22.829Z,83.40
2019-03-10T19:32:51.072Z,83.50
2019-03-10T19:35:19.317Z,82.70
2019-03-10T19:37:47.557Z,82.50
2019-03-10T19:40:20.837Z,83.00
2019-03-10T19:42:49.073Z,83.60
2019-03-10T19:45:21.283Z,84.50
2019-03-10T19:47:49.512Z,86.20
2019-03-10T19:50:27.025Z,88.40
2019-03-10T19:52:54.914Z,90.90
2019-03-10T19:55:23.139Z,92.30
2019-03-10T19:57:51.376Z,92.80
2019-03-10T20:00:20.418Z,94.00
2019-03-10T20:02:48.697Z,94.30
2019-03-10T20:05:16.978Z,95.20
2019-03-10T20:07:45.376Z,95.70
2019-03-10T20:10:15.164Z,96.70
2019-03-10T20:12:43.403Z,97.30
2019-03-10T20:15:14.369Z,97.50
2019-03-10T20:17:42.649Z,97.10
2019-03-10T20:20:13.319Z,97.60
2019-03-10T20:22:41.725Z,97.80
2019-03-10T20:25:11.804Z,97.90
2019-03-10T20:27:40.034Z,97.90
2019-03-10T20:30:16.195Z,98.00
2019-03-10T20:32:44.467Z,97.90
2019-03-10T20:35:12.720Z,98.00
2019-03-10T20:37:40.922Z,97.90
2019-03-10T20:40:12.411Z,97.90
2019-03-10T20:42:40.633Z,98.00
2019-03-10T20:45:10.016Z,98.00
2019-03-10T20:47:38.232Z,98.30
2019-03-10T20:50:16.714Z,98.70
2019-03-10T20:52:44.926Z,98.90
2019-03-10T20:55:14.125Z,99.40
2019-03-10T20:57:42.340Z,99.50
2019-03-10T21:00:16.442Z,99.50
2019-03-10T21:02:44.724Z,99.60
2019-03-10T21:05:12.969Z,99.80
2019-03-10T21:07:41.221Z,99.90
2019-03-10T21:10:17.945Z,99.90
2019-03-10T21:12:46.279Z,99.90
2019-03-10T21:15:21.769Z,99.90
2019-03-10T21:17:49.984Z,99.80
2019-03-10T21:20:23.342Z,99.70
2019-03-10T21:22:51.591Z,99.50
2019-03-10T21:25:30.657Z,99.60
2019-03-10T21:27:58.878Z,99.60
2019-03-10T21:30:32.031Z,99.70
2019-03-10T21:33:00.243Z,99.60
2019-03-10T21:35:28.488Z,99.60
2019-03-10T21:37:56.742Z,99.50
2019-03-10T21:40:33.286Z,99.60
2019-03-10T21:43:01.499Z,99.40
2019-03-10T21:45:29.775Z,99.30
2019-03-10T21:47:58.055Z,99.10
2019-03-10T21:53:57.211Z,99.30
2019-03-10T21:56:25.447Z,99.50
2019-03-10T21:58:53.707Z,99.80
2019-03-10T22:01:21.951Z,99.70
2019-03-10T22:03:50.162Z,99.60
2019-03-10T22:06:18.410Z,99.50
2019-03-10T22:08:46.650Z,99.60
2019-03-10T22:11:14.897Z,99.60
2019-03-10T22:13:46.876Z,99.70
2019-03-10T22:16:13.083Z,99.70
2019-03-10T22:18:41.322Z,99.70
2019-03-10T22:21:09.569Z,99.80
2019-03-10T22:23:37.786Z,99.80
2019-03-10T22:26:06.038Z,99.80
2019-03-10T22:28:34.313Z,99.90
2019-03-10T22:31:02.578Z,99.80
2019-03-10T22:33:30.824Z,99.80
2019-03-10T22:35:59.058Z,99.80
2019-03-10T22:38:27.297Z,99.90
2019-03-10T22:40:55.615Z,99.60
2019-03-10T22:43:23.869Z,99.50
2019-03-10T22:45:52.128Z,99.60
2019-03-10T22:48:20.999Z,99.10
2019-03-10T22:50:49.239Z,99.00
2019-03-10T22:53:17.478Z,98.40
2019-03-10T22:55:45.724Z,97.50
2019-03-10T22:58:13.966Z,97.00
2019-03-10T23:00:46.442Z,96.30
2019-03-10T23:03:14.690Z,96.50
2019-03-10T23:05:42.947Z,96.70
2019-03-10T23:08:11.315Z,96.20
2019-03-10T23:10:39.561Z,96.00
2019-03-10T23:13:07.842Z,95.90
2019-03-10T23:15:36.062Z,95.90
2019-03-10T23:18:04.319Z,96.40
2019-03-10T23:20:32.549Z,96.70
2019-03-10T23:23:00.815Z,97.10
2019-03-10T23:25:29.029Z,97.60
2019-03-10T23:27:57.278Z,97.50
2019-03-10T23:30:25.527Z,97.70
2019-03-10T23:32:53.767Z,97.70
2019-03-10T23:35:21.995Z,97.60
2019-03-10T23:37:50.245Z,97.90
2019-03-10T23:40:19.259Z,97.60
2019-03-10T23:42:47.537Z,97.70
2019-03-10T23:45:19.022Z,96.90
2019-03-10T23:47:47.388Z,96.10
2019-03-10T23:50:16.614Z,95.90
2019-03-10T23:52:44.846Z,95.60
2019-03-10T23:55:13.735Z,95.70
2019-03-10T23:57:41.938Z,95.60
